createdAt,value
2022-11-16T00:01:05.790Z,99.90
2022-11-16T00:02:53.156Z,99.90
2022-11-16T00:04:40.613Z,99.90
2022-11-16T00:06:29.014Z,99.90
2022-11-16T00:08:16.171Z,99.90
2022-11-16T00:10:03.274Z,99.90
2022-11-16T00:11:53.452Z,99.90
2022-11-16T00:13:42.574Z,99.90
2022-11-16T00:15:30.247Z,99.90
2022-11-16T00:17:17.483Z,99.90
2022-11-16T00:19:05.946Z,99.90
2022-11-16T00:20:52.978Z,99.90
2022-11-16T00:22:40.245Z,99.90
2022-11-16T00:24:27.198Z,99.90
2022-11-16T00:26:14.357Z,99.90
2022-11-16T00:28:01.659Z,99.90
2022-11-16T00:29:48.864Z,99.90
2022-11-16T00:31:35.973Z,99.90
2022-11-16T00:33:23.271Z,99.90
2022-11-16T00:35:10.273Z,99.90
2022-11-16T00:36:57.354Z,99.90
2022-11-16T00:38:44.832Z,99.90
2022-11-16T00:40:33.812Z,99.90
2022-11-16T00:42:20.851Z,99.90
2022-11-16T00:44:08.370Z,99.90
2022-11-16T00:45:55.421Z,99.90
2022-11-16T00:47:42.690Z,99.90
2022-11-16T00:49:29.910Z,99.90
2022-11-16T00:51:17.384Z,99.90
2022-11-16T00:53:05.494Z,99.90
2022-11-16T00:54:52.768Z,99.90
2022-11-16T00:56:40.471Z,99.90
2022-11-16T00:58:27.729Z,99.90
2022-11-16T01:00:20.874Z,99.90
2022-11-16T01:02:07.979Z,99.90
2022-11-16T01:03:55.594Z,99.90
2022-11-16T01:05:42.885Z,99.90
2022-11-16T01:07:29.891Z,99.90
2022-11-16T01:09:17.045Z,99.90
2022-11-16T01:11:27.707Z,99.90
2022-11-16T01:13:15.382Z,99.90
2022-11-16T01:15:07.098Z,99.90
2022-11-16T01:16:54.376Z,99.90
2022-11-16T01:18:41.554Z,99.90
2022-11-16T01:20:30.799Z,99.90
2022-11-16T01:22:18.198Z,99.90
2022-11-16T01:24:05.642Z,99.90
2022-11-16T01:26:01.879Z,99.90
2022-11-16T01:27:51.684Z,99.90
2022-11-16T01:29:55.138Z,99.90
2022-11-16T01:31:42.643Z,99.90
2022-11-16T01:33:30.235Z,99.90
2022-11-16T01:35:18.947Z,99.90
2022-11-16T01:37:07.786Z,99.90
2022-11-16T01:38:58.559Z,99.90
2022-11-16T01:40:49.962Z,99.90
2022-11-16T01:42:37.588Z,99.90
2022-11-16T01:44:34.170Z,99.90
2022-11-16T01:46:32.184Z,99.90
2022-11-16T01:48:22.115Z,99.90
2022-11-16T01:50:14.292Z,99.90
2022-11-16T01:52:08.362Z,99.90
2022-11-16T01:53:59.026Z,99.90
2022-11-16T01:55:48.533Z,99.90
2022-11-16T01:57:45.821Z,99.90
2022-11-16T01:59:33.297Z,99.90
2022-11-16T02:01:21.052Z,99.90
2022-11-16T02:03:13.204Z,99.90
2022-11-16T02:05:09.730Z,99.90
2022-11-16T02:08:01.652Z,99.90
2022-11-16T02:10:25.479Z,99.90
2022-11-16T02:12:46.924Z,99.90
2022-11-16T02:14:37.577Z,99.90
2022-11-16T02:16:49.590Z,99.90
2022-11-16T02:18:52.511Z,99.90
2022-11-16T02:21:03.880Z,99.90
2022-11-16T02:22:59.503Z,99.90
2022-11-16T02:25:22.961Z,99.90
2022-11-16T02:27:31.943Z,99.90
2022-11-16T02:29:27.213Z,99.90
2022-11-16T02:31:18.717Z,99.90
2022-11-16T02:33:12.606Z,99.90
2022-11-16T02:35:07.561Z,99.90
2022-11-16T02:36:56.637Z,99.90
2022-11-16T02:38:51.628Z,99.90
2022-11-16T02:40:42.966Z,99.90
2022-11-16T02:42:39.360Z,99.90
2022-11-16T02:44:31.153Z,99.90
2022-11-16T02:46:30.084Z,99.90
2022-11-16T02:48:40.133Z,99.90
2022-11-16T02:50:29.809Z,99.90
2022-11-16T02:52:18.028Z,99.90
2022-11-16T02:54:12.665Z,99.90
2022-11-16T02:56:01.947Z,99.90
2022-11-16T02:58:03.643Z,99.90
2022-11-16T02:59:56.622Z,99.90
2022-11-16T03:02:07.791Z,99.90
2022-11-16T03:04:50.516Z,99.90
2022-11-16T03:06:39.640Z,99.90
2022-11-16T03:08:32.583Z,99.90
2022-11-16T03:10:42.017Z,99.90
2022-11-16T03:12:33.910Z,99.90
2022-11-16T03:14:25.119Z,99.90
2022-11-16T03:16:22.038Z,99.90
2022-11-16T03:18:13.834Z,99.90
2022-11-16T03:20:14.722Z,99.90
2022-11-16T03:22:12.153Z,99.90
2022-11-16T03:24:00.041Z,99.90
2022-11-16T03:25:52.699Z,99.90
2022-11-16T03:27:49.683Z,99.90
2022-11-16T03:29:47.233Z,99.90
2022-11-16T03:31:49.668Z,99.90
2022-11-16T03:33:45.843Z,99.90
2022-11-16T03:35:41.645Z,99.90
2022-11-16T03:37:30.254Z,99.90
2022-11-16T03:39:26.968Z,99.90
2022-11-16T03:41:15.284Z,99.90
2022-11-16T03:43:04.724Z,99.90
2022-11-16T03:44:53.264Z,99.90
2022-11-16T03:46:43.230Z,99.90
2022-11-16T03:48:37.458Z,99.90
2022-11-16T03:50:29.887Z,99.90
2022-11-16T03:52:18.880Z,99.90
2022-11-16T03:54:07.588Z,99.90
2022-11-16T03:55:55.973Z,99.90
2022-11-16T03:57:44.036Z,99.90
2022-11-16T03:59:31.093Z,99.90
2022-11-16T04:01:18.275Z,99.90
2022-11-16T04:03:07.413Z,99.90
2022-11-16T04:05:12.963Z,99.90
2022-11-16T04:07:18.841Z,99.90
2022-11-16T04:09:24.894Z,99.90
2022-11-16T04:11:35.206Z,99.90
2022-11-16T04:13:47.596Z,99.90
2022-11-16T04:15:53.728Z,99.90
2022-11-16T04:18:05.264Z,99.90
2022-11-16T04:20:10.953Z,99.90
2022-11-16T04:22:25.608Z,99.90
2022-11-16T04:24:17.207Z,99.90
2022-11-16T04:26:07.474Z,99.90
2022-11-16T04:28:13.847Z,99.90
2022-11-16T04:30:05.346Z,99.90
2022-11-16T04:32:13.369Z,99.90
2022-11-16T04:34:19.405Z,99.90
2022-11-16T04:36:29.719Z,99.90
2022-11-16T04:38:16.855Z,99.90
2022-11-16T04:40:05.027Z,99.90
2022-11-16T04:42:10.355Z,99.90
2022-11-16T04:43:58.994Z,99.90
2022-11-16T04:46:05.164Z,99.90
2022-11-16T04:47:59.589Z,99.90
2022-11-16T04:49:50.804Z,99.90
2022-11-16T04:51:38.299Z,99.90
2022-11-16T04:53:27.142Z,99.90
2022-11-16T04:55:40.467Z,99.90
2022-11-16T04:57:28.703Z,99.90
2022-11-16T04:59:16.561Z,99.90
2022-11-16T05:01:04.344Z,99.90
2022-11-16T05:02:54.650Z,99.90
2022-11-16T05:04:45.258Z,99.90
2022-11-16T05:06:32.761Z,99.90
2022-11-16T05:08:20.839Z,99.90
2022-11-16T05:10:10.796Z,99.90
2022-11-16T05:11:58.335Z,99.90
2022-11-16T05:13:46.175Z,99.90
2022-11-16T05:15:33.979Z,99.90
2022-11-16T05:17:22.189Z,99.90
2022-11-16T05:19:28.401Z,99.90
2022-11-16T05:21:17.873Z,99.90
2022-11-16T05:23:05.216Z,99.90
2022-11-16T05:24:56.035Z,99.90
2022-11-16T05:26:43.812Z,99.90
2022-11-16T05:28:31.084Z,99.90
2022-11-16T05:30:19.109Z,99.90
2022-11-16T05:32:07.492Z,99.90
2022-11-16T05:33:54.549Z,99.90
2022-11-16T05:35:42.746Z,99.90
2022-11-16T05:37:30.568Z,99.90
2022-11-16T05:39:19.385Z,99.90
2022-11-16T05:41:06.985Z,99.90
2022-11-16T05:42:54.039Z,99.90
2022-11-16T05:44:41.726Z,99.90
2022-11-16T05:46:30.003Z,99.90
2022-11-16T05:48:20.016Z,99.90
2022-11-16T05:50:08.891Z,99.90
2022-11-16T05:52:00.585Z,99.90
2022-11-16T05:53:49.628Z,99.90
2022-11-16T05:55:41.605Z,99.90
2022-11-16T05:57:28.939Z,99.90
2022-11-16T05:59:18.798Z,99.90
2022-11-16T06:01:09.453Z,99.90
2022-11-16T06:02:57.699Z,99.90
2022-11-16T06:04:49.365Z,99.90
2022-11-16T06:06:37.959Z,99.90
2022-11-16T06:08:26.155Z,99.90
2022-11-16T06:10:15.226Z,99.90
2022-11-16T06:12:05.165Z,99.90
2022-11-16T06:13:52.981Z,99.90
2022-11-16T06:15:40.597Z,99.90
2022-11-16T06:17:28.914Z,99.90
2022-11-16T06:19:17.726Z,99.90
2022-11-16T06:21:04.982Z,99.90
2022-11-16T06:22:54.144Z,99.90
2022-11-16T06:24:42.643Z,99.90
2022-11-16T06:26:30.736Z,99.90
2022-11-16T06:28:18.418Z,99.90
2022-11-16T06:30:07.325Z,99.90
2022-11-16T06:31:54.670Z,99.90
2022-11-16T06:33:42.533Z,99.90
2022-11-16T06:35:36.819Z,99.90
2022-11-16T06:37:24.580Z,99.90
2022-11-16T06:39:12.942Z,99.90
2022-11-16T06:41:01.903Z,99.90
2022-11-16T06:42:51.103Z,99.90
2022-11-16T06:44:38.240Z,99.90
2022-11-16T06:46:28.128Z,99.90
2022-11-16T06:48:15.336Z,99.90
2022-11-16T06:50:03.817Z,99.90
2022-11-16T06:51:51.212Z,99.90
2022-11-16T06:53:39.002Z,99.90
2022-11-16T06:55:29.183Z,99.90
2022-11-16T06:57:16.615Z,99.90
2022-11-16T06:59:03.869Z,99.90
2022-11-16T07:00:51.672Z,99.90
2022-11-16T07:02:39.990Z,99.90
2022-11-16T07:04:32.375Z,99.90
2022-11-16T07:06:20.170Z,99.90
2022-11-16T07:08:07.954Z,99.90
2022-11-16T07:09:56.284Z,99.90
2022-11-16T07:11:45.196Z,99.90
2022-11-16T07:13:36.835Z,99.90
2022-11-16T07:15:25.051Z,99.90
2022-11-16T07:17:12.278Z,99.90
2022-11-16T07:19:00.794Z,99.90
2022-11-16T07:20:50.180Z,99.90
2022-11-16T07:22:37.523Z,99.90
2022-11-16T07:24:25.392Z,99.90
2022-11-16T07:26:12.563Z,99.90
2022-11-16T07:28:08.542Z,99.90
2022-11-16T07:29:56.668Z,99.90
2022-11-16T07:32:00.299Z,99.90
2022-11-16T07:34:16.585Z,99.90
2022-11-16T07:36:12.380Z,99.90
2022-11-16T07:37:59.488Z,99.90
2022-11-16T07:39:46.815Z,99.90
2022-11-16T07:41:36.792Z,99.90
2022-11-16T07:43:33.147Z,99.90
2022-11-16T07:45:30.517Z,99.90
2022-11-16T07:47:24.250Z,99.90
2022-11-16T07:49:19.071Z,99.90
2022-11-16T07:51:17.604Z,99.90
2022-11-16T07:53:12.870Z,99.90
2022-11-16T07:55:01.866Z,99.90
2022-11-16T07:56:53.429Z,99.90
2022-11-16T07:58:41.069Z,99.90
2022-11-16T08:00:29.291Z,99.90
2022-11-16T08:02:26.574Z,99.90
2022-11-16T08:04:15.751Z,99.90
2022-11-16T08:06:14.393Z,99.90
2022-11-16T08:08:02.631Z,99.90
2022-11-16T08:09:51.721Z,99.90
2022-11-16T08:11:39.071Z,99.90
2022-11-16T08:13:27.291Z,99.90
2022-11-16T08:15:14.870Z,99.90
2022-11-16T08:17:03.733Z,99.90
2022-11-16T08:18:50.995Z,99.90
2022-11-16T08:20:38.404Z,99.90
2022-11-16T08:22:26.149Z,99.90
2022-11-16T08:24:13.291Z,99.90
2022-11-16T08:26:09.360Z,99.90
2022-11-16T08:27:57.940Z,99.90
2022-11-16T08:29:45.143Z,99.90
2022-11-16T08:31:34.034Z,99.90
2022-11-16T08:33:29.564Z,99.90
2022-11-16T08:35:18.430Z,99.90
2022-11-16T08:37:06.825Z,99.90
2022-11-16T08:38:59.978Z,99.90
2022-11-16T08:40:50.934Z,99.90
2022-11-16T08:42:43.492Z,99.90
2022-11-16T08:44:31.605Z,99.90
2022-11-16T08:46:22.853Z,99.90
2022-11-16T08:48:16.468Z,99.90
2022-11-16T08:50:04.231Z,99.90
2022-11-16T08:51:52.263Z,99.90
2022-11-16T08:53:40.183Z,99.90
2022-11-16T08:55:27.520Z,99.90
2022-11-16T08:57:15.342Z,99.90
2022-11-16T08:59:04.655Z,89.80
2022-11-16T09:00:52.159Z,79.00
2022-11-16T09:02:39.291Z,80.10
2022-11-16T09:04:29.583Z,61.20
2022-11-16T09:06:19.112Z,60.50
2022-11-16T09:08:06.330Z,57.30
2022-11-16T09:09:53.677Z,46.30
2022-11-16T09:11:40.822Z,45.60
2022-11-16T09:13:28.834Z,47.30
2022-11-16T09:15:16.461Z,39.40
2022-11-16T09:17:03.710Z,14.10
2022-11-16T09:18:52.053Z,20.40
2022-11-16T09:20:45.425Z,2.20
2022-11-16T09:22:32.745Z,1.00
2022-11-16T09:24:19.929Z,1.00
2022-11-16T09:26:07.380Z,1.00
2022-11-16T09:27:57.434Z,1.00
2022-11-16T09:29:44.723Z,1.00
2022-11-16T09:31:34.884Z,1.00
2022-11-16T09:33:22.369Z,1.00
2022-11-16T09:35:09.853Z,1.00
2022-11-16T09:36:57.316Z,1.00
2022-11-16T09:39:18.981Z,1.00
2022-11-16T09:40:53.454Z,1.00
2022-11-16T09:43:06.836Z,1.00
2022-11-16T09:45:18.398Z,1.00
2022-11-16T09:47:14.239Z,1.00
2022-11-16T09:49:17.361Z,1.00
2022-11-16T09:51:10.070Z,1.00
2022-11-16T09:53:20.193Z,1.00
2022-11-16T09:55:33.711Z,1.00
2022-11-16T09:57:27.086Z,1.00
2022-11-16T09:59:23.406Z,1.00
2022-11-16T10:01:36.311Z,1.00
2022-11-16T10:03:25.358Z,59.20
2022-11-16T10:05:21.785Z,1.00
2022-11-16T10:07:16.072Z,1.00
2022-11-16T10:09:04.086Z,1.00
2022-11-16T10:10:51.054Z,1.00
2022-11-16T10:12:46.265Z,1.00
2022-11-16T10:14:45.207Z,1.00
2022-11-16T10:16:38.035Z,1.00
2022-11-16T10:18:28.071Z,1.00
2022-11-16T10:20:46.134Z,1.00
2022-11-16T10:22:47.423Z,1.00
2022-11-16T10:24:45.756Z,1.00
2022-11-16T10:26:59.511Z,1.00
2022-11-16T10:29:07.110Z,1.00
2022-11-16T10:31:04.659Z,1.00
2022-11-16T10:33:08.074Z,1.00
2022-11-16T10:35:25.459Z,1.00
2022-11-16T10:37:14.066Z,1.00
2022-11-16T10:39:02.564Z,1.00
2022-11-16T10:41:01.647Z,1.00
2022-11-16T10:43:10.121Z,1.00
2022-11-16T10:45:09.961Z,1.00
2022-11-16T10:47:30.819Z,1.00
2022-11-16T10:50:02.388Z,99.90
2022-11-16T10:51:49.783Z,99.90
2022-11-16T10:53:42.236Z,99.90
2022-11-16T10:55:29.770Z,99.90
2022-11-16T10:57:17.935Z,99.90
2022-11-16T10:59:13.689Z,99.90
2022-11-16T11:01:01.158Z,99.90
2022-11-16T11:02:48.924Z,99.90
2022-11-16T11:04:38.951Z,99.90
2022-11-16T11:06:27.087Z,99.90
2022-11-16T11:08:23.934Z,99.90
2022-11-16T11:10:33.396Z,99.90
2022-11-16T11:12:40.682Z,99.90
2022-11-16T11:14:27.766Z,99.90
2022-11-16T11:16:17.730Z,99.90
2022-11-16T11:18:23.496Z,99.90
2022-11-16T11:20:16.943Z,99.90
2022-11-16T11:22:04.459Z,99.90
2022-11-16T11:24:06.042Z,99.90
2022-11-16T11:26:03.551Z,99.90
2022-11-16T11:27:52.606Z,99.90
2022-11-16T11:29:43.058Z,99.90
2022-11-16T11:31:39.181Z,99.90
2022-11-16T11:33:29.984Z,99.90
2022-11-16T11:35:30.228Z,99.90
2022-11-16T11:37:21.688Z,99.90
2022-11-16T11:39:11.777Z,99.90
2022-11-16T11:41:05.338Z,99.90
2022-11-16T11:42:58.770Z,99.90
2022-11-16T11:44:58.888Z,99.90
2022-11-16T11:47:42.400Z,99.90
2022-11-16T11:49:16.328Z,99.90
2022-11-16T11:51:36.138Z,99.90
2022-11-16T11:53:52.070Z,99.90
2022-11-16T11:55:39.664Z,99.90
2022-11-16T11:57:26.849Z,99.90
2022-11-16T11:59:20.029Z,99.90
2022-11-16T12:01:40.899Z,99.90
2022-11-16T12:04:02.366Z,99.90
2022-11-16T12:06:23.245Z,99.90
2022-11-16T12:08:45.647Z,99.90
2022-11-16T12:10:47.341Z,99.90
2022-11-16T12:12:46.507Z,99.90
2022-11-16T12:15:05.307Z,99.90
2022-11-16T12:16:58.407Z,99.90
2022-11-16T12:19:11.572Z,99.90
2022-11-16T12:21:20.135Z,99.90
2022-11-16T12:23:23.674Z,99.90
2022-11-16T12:25:30.726Z,99.90
2022-11-16T12:27:27.164Z,99.90
2022-11-16T12:29:26.052Z,99.90
2022-11-16T12:31:38.032Z,99.90
2022-11-16T12:33:34.664Z,99.90
2022-11-16T12:35:41.065Z,99.90
2022-11-16T12:38:26.095Z,99.90
2022-11-16T12:40:37.947Z,99.90
2022-11-16T12:42:42.150Z,99.90
2022-11-16T12:45:12.287Z,1.00
2022-11-16T12:47:18.010Z,1.00
2022-11-16T12:49:32.769Z,1.00
2022-11-16T12:51:34.818Z,1.00
2022-11-16T12:53:37.347Z,1.00
2022-11-16T12:55:29.625Z,1.00
2022-11-16T12:57:38.837Z,1.00
2022-11-16T12:59:44.851Z,1.00
2022-11-16T13:01:36.465Z,1.00
2022-11-16T13:03:39.621Z,1.00
2022-11-16T13:05:37.730Z,1.00
2022-11-16T13:07:45.867Z,1.00
2022-11-16T13:09:37.792Z,1.00
2022-11-16T13:11:30.602Z,99.90
2022-11-16T13:13:37.417Z,1.00
2022-11-16T13:15:37.174Z,1.00
2022-11-16T13:17:28.113Z,1.00
2022-11-16T13:19:17.266Z,1.00
2022-11-16T13:21:08.083Z,1.00
2022-11-16T13:23:18.251Z,1.00
2022-11-16T13:25:32.091Z,1.00
2022-11-16T13:27:41.042Z,1.00
2022-11-16T13:29:42.491Z,99.90
2022-11-16T13:31:42.197Z,99.90
2022-11-16T13:33:32.106Z,1.00
2022-11-16T13:35:21.016Z,1.00
2022-11-16T13:37:34.334Z,1.00
2022-11-16T13:39:59.603Z,1.00
2022-11-16T13:42:04.843Z,1.00
2022-11-16T13:43:52.058Z,1.00
2022-11-16T13:45:53.002Z,1.00
2022-11-16T13:47:40.331Z,1.00
2022-11-16T13:49:38.134Z,1.00
2022-11-16T13:51:25.348Z,1.00
2022-11-16T13:55:57.073Z,1.00
2022-11-16T13:57:56.743Z,1.00
2022-11-16T13:59:44.225Z,1.00
2022-11-16T14:01:56.244Z,1.00
2022-11-16T14:04:13.630Z,1.00
2022-11-16T14:06:01.058Z,1.00
2022-11-16T14:07:50.112Z,1.00
2022-11-16T14:09:48.966Z,1.00
2022-11-16T14:11:40.365Z,1.00
2022-11-16T14:13:37.739Z,1.00
2022-11-16T14:15:36.518Z,1.00
2022-11-16T14:18:09.282Z,1.00
2022-11-16T14:20:05.911Z,1.00
2022-11-16T14:22:08.178Z,1.00
2022-11-16T14:24:33.961Z,1.00
2022-11-16T14:26:33.469Z,1.00
2022-11-16T14:28:43.323Z,9.40
2022-11-16T14:30:56.463Z,26.60
2022-11-16T14:32:49.750Z,49.90
2022-11-16T14:34:45.833Z,58.30
2022-11-16T14:36:43.139Z,42.40
2022-11-16T14:38:43.818Z,37.60
2022-11-16T14:40:45.826Z,43.50
2022-11-16T14:43:09.517Z,58.90
2022-11-16T14:45:06.272Z,83.50
2022-11-16T14:46:56.518Z,80.60
2022-11-16T14:48:47.205Z,87.20
2022-11-16T14:50:40.689Z,94.10
2022-11-16T14:52:44.900Z,95.60
2022-11-16T14:54:41.566Z,99.90
2022-11-16T14:56:28.794Z,93.20
2022-11-16T14:58:23.330Z,95.50
2022-11-16T15:00:30.237Z,94.60
2022-11-16T15:02:22.358Z,95.90
2022-11-16T15:04:11.936Z,94.20
2022-11-16T15:06:03.674Z,98.70
2022-11-16T15:07:53.361Z,99.90
2022-11-16T15:09:50.350Z,90.80
2022-11-16T15:11:59.770Z,86.70
2022-11-16T15:13:48.549Z,89.80
2022-11-16T15:15:35.673Z,90.60
2022-11-16T15:17:31.807Z,99.90
2022-11-16T15:19:21.159Z,84.90
2022-11-16T15:21:20.413Z,26.80
2022-11-16T15:23:15.226Z,17.20
2022-11-16T15:25:02.301Z,21.10
2022-11-16T15:26:49.592Z,27.90
2022-11-16T15:28:37.480Z,11.90
2022-11-16T15:30:34.199Z,20.50
2022-11-16T15:32:21.356Z,20.80
2022-11-16T15:34:12.995Z,37.20
2022-11-16T15:36:00.112Z,39.70
2022-11-16T15:37:47.433Z,35.20
2022-11-16T15:39:36.517Z,48.80
2022-11-16T15:41:25.538Z,52.70
2022-11-16T15:43:13.649Z,49.50
2022-11-16T15:45:09.448Z,62.20
2022-11-16T15:47:01.384Z,66.20
2022-11-16T15:48:49.959Z,65.80
2022-11-16T15:50:39.095Z,78.80
2022-11-16T15:52:51.094Z,86.50
2022-11-16T15:54:57.076Z,80.50
2022-11-16T15:56:45.292Z,81.80
2022-11-16T15:58:42.412Z,90.50
2022-11-16T16:00:31.416Z,96.10
2022-11-16T16:02:20.854Z,97.30
2022-11-16T16:04:08.235Z,99.90
2022-11-16T16:05:55.791Z,99.90
2022-11-16T16:07:43.986Z,99.90
2022-11-16T16:09:37.157Z,99.90
2022-11-16T16:11:27.045Z,99.90
2022-11-16T16:13:27.764Z,99.90
2022-11-16T16:15:34.144Z,99.90
2022-11-16T16:17:26.859Z,99.90
2022-11-16T16:19:36.629Z,99.90
2022-11-16T16:21:24.433Z,97.20
2022-11-16T16:23:17.740Z,84.00
2022-11-16T16:25:06.711Z,79.50
2022-11-16T16:26:53.807Z,65.90
2022-11-16T16:28:41.239Z,47.60
2022-11-16T16:30:29.946Z,42.80
2022-11-16T16:32:33.460Z,17.30
2022-11-16T16:34:20.543Z,11.70
2022-11-16T16:36:08.365Z,21.90
2022-11-16T16:38:02.568Z,36.00
2022-11-16T16:39:50.231Z,48.90
2022-11-16T16:41:38.907Z,50.50
2022-11-16T16:43:27.422Z,58.70
2022-11-16T16:45:21.630Z,68.90
2022-11-16T16:47:09.491Z,85.70
2022-11-16T16:48:57.161Z,95.30
2022-11-16T16:50:44.239Z,99.90
2022-11-16T16:52:32.191Z,99.90
2022-11-16T16:54:19.631Z,95.00
2022-11-16T16:56:13.498Z,98.40
2022-11-16T16:58:01.727Z,99.70
2022-11-16T16:59:49.401Z,99.90
2022-11-16T17:01:36.372Z,99.90
2022-11-16T17:03:23.867Z,99.90
2022-11-16T17:05:10.904Z,99.90
2022-11-16T17:06:58.196Z,99.90
2022-11-16T17:08:45.486Z,99.90
2022-11-16T17:10:33.044Z,99.90
2022-11-16T17:12:20.048Z,99.90
2022-11-16T17:14:08.097Z,99.90
2022-11-16T17:15:55.241Z,99.90
2022-11-16T17:17:42.971Z,99.90
2022-11-16T17:19:30.365Z,99.90
2022-11-16T17:21:18.365Z,99.90
2022-11-16T17:23:05.656Z,99.90
2022-11-16T17:24:53.168Z,99.90
2022-11-16T17:26:41.213Z,99.90
2022-11-16T17:28:28.256Z,99.90
2022-11-16T17:30:16.076Z,99.90
2022-11-16T17:32:04.063Z,99.90
2022-11-16T17:33:51.746Z,99.90
2022-11-16T17:35:39.361Z,99.90
2022-11-16T17:37:26.950Z,99.90
2022-11-16T17:39:14.046Z,99.90
2022-11-16T17:41:23.655Z,99.90
2022-11-16T17:43:11.475Z,99.90
2022-11-16T17:44:58.955Z,99.90
2022-11-16T17:46:46.664Z,99.90
2022-11-16T17:48:35.007Z,99.90
2022-11-16T17:50:22.165Z,99.90
2022-11-16T17:52:09.473Z,99.90
2022-11-16T17:53:57.053Z,99.90
2022-11-16T17:55:44.061Z,99.90
2022-11-16T17:57:31.466Z,99.90
2022-11-16T17:59:19.336Z,99.90
2022-11-16T18:01:09.455Z,99.90
2022-11-16T18:02:57.083Z,99.90
2022-11-16T18:04:49.621Z,99.90
2022-11-16T18:06:38.189Z,99.90
2022-11-16T18:08:26.676Z,99.90
2022-11-16T18:10:19.054Z,99.90
2022-11-16T18:12:10.291Z,99.90
2022-11-16T18:14:01.746Z,99.90
2022-11-16T18:18:02.121Z,99.90
2022-11-16T18:19:50.151Z,99.90
2022-11-16T18:21:41.200Z,99.90
2022-11-16T18:23:29.522Z,99.90
2022-11-16T18:25:16.835Z,99.90
2022-11-16T18:27:03.987Z,99.90
2022-11-16T18:28:52.662Z,99.90
2022-11-16T18:30:40.316Z,99.90
2022-11-16T18:32:27.362Z,99.90
2022-11-16T18:34:15.462Z,99.90
2022-11-16T18:36:03.612Z,99.90
2022-11-16T18:37:51.031Z,99.90
2022-11-16T18:39:38.194Z,99.90
2022-11-16T18:41:28.769Z,99.90
2022-11-16T18:43:15.814Z,99.90
2022-11-16T18:45:03.248Z,99.90
2022-11-16T18:46:50.627Z,99.90
2022-11-16T18:48:37.811Z,99.90
2022-11-16T18:50:27.019Z,99.90
2022-11-16T18:52:14.834Z,99.90
2022-11-16T18:54:01.937Z,99.90
2022-11-16T18:55:57.582Z,99.90
2022-11-16T18:57:45.385Z,99.90
2022-11-16T18:59:32.574Z,99.90
2022-11-16T19:01:23.036Z,99.90
2022-11-16T19:03:11.570Z,99.90
2022-11-16T19:04:58.633Z,91.00
2022-11-16T19:06:45.719Z,90.90
2022-11-16T19:08:33.780Z,93.40
2022-11-16T19:10:20.953Z,92.50
2022-11-16T19:12:08.117Z,90.50
2022-11-16T19:13:57.810Z,93.70
2022-11-16T19:15:45.278Z,96.20
2022-11-16T19:17:33.093Z,97.80
2022-11-16T19:19:21.791Z,96.90
2022-11-16T19:21:10.402Z,94.20
2022-11-16T19:22:57.693Z,97.80
2022-11-16T19:24:45.004Z,99.90
2022-11-16T19:26:32.031Z,99.90
2022-11-16T19:28:19.658Z,99.90
2022-11-16T19:30:07.521Z,99.90
2022-11-16T19:31:54.618Z,99.90
2022-11-16T19:33:42.110Z,99.90
2022-11-16T19:35:29.425Z,99.90
2022-11-16T19:37:16.819Z,99.90
2022-11-16T19:39:06.227Z,99.90
2022-11-16T19:40:53.523Z,99.90
2022-11-16T19:42:42.850Z,99.90
2022-11-16T19:44:29.913Z,99.90
2022-11-16T19:46:18.364Z,99.90
2022-11-16T19:48:05.716Z,99.90
2022-11-16T19:49:53.333Z,99.90
2022-11-16T19:51:40.677Z,99.90
2022-11-16T19:53:27.783Z,99.90
2022-11-16T19:55:15.449Z,99.90
2022-11-16T19:57:03.377Z,99.90
2022-11-16T19:58:51.006Z,99.90
2022-11-16T20:00:38.730Z,99.90
2022-11-16T20:02:26.293Z,99.90
2022-11-16T20:04:14.276Z,99.90
2022-11-16T20:06:15.996Z,99.90
2022-11-16T20:08:03.940Z,99.90
2022-11-16T20:09:53.547Z,99.90
2022-11-16T20:11:41.728Z,99.90
2022-11-16T20:13:29.628Z,99.90
2022-11-16T20:15:16.933Z,99.90
2022-11-16T20:17:05.492Z,99.90
2022-11-16T20:18:54.069Z,99.90
2022-11-16T20:20:41.385Z,99.90
2022-11-16T20:22:28.500Z,99.90
2022-11-16T20:24:17.912Z,99.90
2022-11-16T20:26:05.768Z,99.90
2022-11-16T20:27:52.823Z,99.90
2022-11-16T20:29:40.169Z,99.90
2022-11-16T20:31:31.849Z,99.90
2022-11-16T20:33:19.134Z,99.90
2022-11-16T20:35:06.803Z,99.90
2022-11-16T20:36:53.925Z,99.90
2022-11-16T20:38:41.016Z,99.90
2022-11-16T20:40:28.594Z,99.90
2022-11-16T20:42:15.580Z,99.90
2022-11-16T20:44:05.063Z,99.90
2022-11-16T20:45:53.798Z,99.90
2022-11-16T20:47:41.101Z,99.90
2022-11-16T20:52:04.962Z,99.90
2022-11-16T20:53:52.548Z,99.90
2022-11-16T20:55:39.800Z,99.90
2022-11-16T20:57:28.132Z,99.90
2022-11-16T20:59:15.510Z,99.90
2022-11-16T21:01:12.942Z,99.90
2022-11-16T21:03:00.382Z,99.90
2022-11-16T21:04:47.529Z,99.90
2022-11-16T21:06:34.637Z,99.90
2022-11-16T21:08:22.207Z,99.90
2022-11-16T21:10:18.975Z,99.90
2022-11-16T21:12:24.946Z,99.90
2022-11-16T21:14:18.855Z,99.90
2022-11-16T21:16:08.931Z,99.90
2022-11-16T21:17:55.977Z,99.90
2022-11-16T21:19:59.528Z,99.90
2022-11-16T21:21:51.120Z,99.90
2022-11-16T21:23:40.012Z,99.90
2022-11-16T21:25:27.715Z,99.90
2022-11-16T21:27:14.943Z,99.90
2022-11-16T21:29:02.115Z,99.90
2022-11-16T21:31:01.048Z,99.90
2022-11-16T21:32:48.066Z,99.90
2022-11-16T21:34:39.917Z,99.90
2022-11-16T21:36:29.710Z,99.90
2022-11-16T21:38:16.821Z,99.90
2022-11-16T21:40:04.164Z,98.40
2022-11-16T21:41:51.577Z,98.00
2022-11-16T21:43:40.645Z,96.50
2022-11-16T21:45:27.660Z,94.10
2022-11-16T21:47:15.117Z,94.50
2022-11-16T21:49:02.471Z,99.90
2022-11-16T21:51:02.543Z,96.30
2022-11-16T21:52:50.177Z,93.40
2022-11-16T21:54:56.007Z,89.70
2022-11-16T21:56:43.703Z,83.30
2022-11-16T21:58:31.338Z,83.50
2022-11-16T22:00:19.661Z,90.60
2022-11-16T22:02:06.642Z,95.70
2022-11-16T22:04:12.803Z,96.50
2022-11-16T22:06:20.334Z,96.20
2022-11-16T22:08:09.394Z,96.20
2022-11-16T22:09:56.645Z,94.50
2022-11-16T22:11:43.636Z,93.70
2022-11-16T22:13:30.608Z,99.90
2022-11-16T22:15:18.042Z,99.90
2022-11-16T22:17:04.971Z,99.90
2022-11-16T22:18:51.937Z,99.90
2022-11-16T22:20:39.845Z,99.90
2022-11-16T22:22:26.991Z,99.90
2022-11-16T22:24:14.012Z,99.90
2022-11-16T22:26:07.074Z,99.90
2022-11-16T22:28:19.663Z,99.90
2022-11-16T22:30:01.073Z,99.90
2022-11-16T22:31:48.455Z,99.90
2022-11-16T22:33:35.877Z,99.90
2022-11-16T22:35:23.135Z,99.90
2022-11-16T22:37:10.597Z,99.90
2022-11-16T22:38:57.711Z,97.80
2022-11-16T22:40:55.783Z,97.50
2022-11-16T22:42:43.035Z,96.10
2022-11-16T22:44:30.942Z,95.00
2022-11-16T22:46:17.895Z,93.30
2022-11-16T22:48:05.447Z,93.40
2022-11-16T22:49:52.564Z,87.60
2022-11-16T22:51:39.572Z,84.20
2022-11-16T22:53:26.817Z,80.00
2022-11-16T22:55:13.879Z,80.20
2022-11-16T22:57:00.816Z,56.80
2022-11-16T22:58:48.272Z,30.10
2022-11-16T23:00:40.644Z,28.50
2022-11-16T23:02:28.980Z,25.50
2022-11-16T23:04:16.374Z,18.20
2022-11-16T23:06:04.265Z,15.50
2022-11-16T23:07:51.168Z,3.20
2022-11-16T23:09:38.461Z,1.00
2022-11-16T23:11:45.340Z,1.00
2022-11-16T23:13:50.973Z,1.00
2022-11-16T23:15:50.479Z,1.00
2022-11-16T23:17:37.515Z,1.00
2022-11-16T23:19:43.722Z,1.00
2022-11-16T23:21:49.877Z,1.00
2022-11-16T23:23:55.435Z,1.00
2022-11-16T23:26:01.420Z,1.00
2022-11-16T23:27:54.584Z,1.00
2022-11-16T23:29:42.480Z,1.00
2022-11-16T23:31:29.461Z,1.00
2022-11-16T23:33:16.808Z,1.00
2022-11-16T23:35:03.982Z,1.00
2022-11-16T23:36:51.061Z,1.00
2022-11-16T23:38:38.863Z,1.00
2022-11-16T23:40:28.428Z,1.00
2022-11-16T23:42:34.055Z,1.00
2022-11-16T23:44:21.428Z,1.00
2022-11-16T23:46:08.353Z,1.00
2022-11-16T23:47:55.297Z,1.00
2022-11-16T23:49:42.580Z,1.00
2022-11-16T23:51:29.642Z,1.00
2022-11-16T23:53:16.588Z,1.00
2022-11-16T23:55:04.127Z,1.00
2022-11-16T23:56:51.758Z,1.00
2022-11-16T23:58:38.814Z,1.00
